Delmar, New York
Current Conditions -  °F | °C
As of 8:51 AM on Sunday 21 Dec 2014 (Local Time) from KALB Reporting Station
Light Snow Light Snow  
Wind Chill: 27°   Ceiling: 3000
Heat Index: 27°   Visibility: 3mi
Dew Point: 21°   Wind: 3mph
Humidity: 78%   Direction: 10°N
Pressure: 30.35"   Gusts: NA
Location:  42.62°N, 73.84°W
Report Text: KALB 211351Z 01003KT 3SM -SN BR BKN030 OVC034 M03/M06 A3035 RMK AO2 SLP281 VIS NW 2 P0000 T10281061 $
Loading
Personal Weather Stations






























Interactive Weather Map New forecast layout! Learn more

10-Day Weather Forecast

Advertisements
Track Severe Weather on mobile